Seabulk Challenge — KNJL — position and weather

sailwx.info

Track history (hours):
 
Tides and Currents Weather Stations Pressure Air Temp Water Temp Dewpoint Dewpoint Depression Visibility Wind Speed Wind Dir Waves Ship Positions

Seabulk Challenge

Owner: Seabulk Tankers, Inc., Fort Lauderdale, FL. More information available from US FCC via Universal Licensing System and Coast Guard Vessel Documentation Center.

Last reported at 2017-Oct-21 12:21 UTC. Time now 2017-Oct-22 14:03 UTC.
Position N 29°45' W 095°06'.

Length 192 m; draft 8.7 m.

Type: Tanker. MMSI: 303104000.

Date/timePositionNaut miles runAvg speedWind from/ knotsBaromVisibWave heightAir tempDewpointWater temp
2017-Oct-21 12:21N 29°45' W 095°06'0 0.7
2017-Oct-21 11:59N 29°45' W 095°06'2 4.1
2017-Oct-21 11:30N 29°45' W 095°04'4 7.9
2017-Oct-21 11:00N 29°42' W 095°01'510.9
2017-Oct-21 10:30N 29°37' W 094°58'612.7
2017-Oct-21 10:00N 29°32' W 094°54'613.0
2017-Oct-21 09:30N 29°26' W 094°50'29 0.7
2017-Oct-19 14:50N 29°10' W 094°23'1414.5
2017-Oct-19 13:53N 29°02' W 094°10'  
2017-Oct-17 05:18N 25°14' W 080°03'412.5
2017-Oct-17 04:59N 25°18' W 080°01'612.6
2017-Oct-17 04:31N 25°23' W 079°57'612.7
2017-Oct-17 04:01N 25°28' W 079°54'613.0
2017-Oct-17 03:31N 25°33' W 079°49'713.4
2017-Oct-17 03:01N 25°39' W 079°45'713.7
2017-Oct-17 02:30N 25°44' W 079°40'714.1
2017-Oct-17 02:00N 25°49' W 079°35'714.1
2017-Oct-17 01:30N 25°55' W 079°30'714.7
2017-Oct-17 01:00N 26°01' W 079°26'815.2
2017-Oct-17 00:30N 26°09' W 079°24'715.1
2017-Oct-17 00:00N 26°16' W 079°23'2814.6
2017-Oct-16 22:07N 26°44' W 079°21'214.3
2017-Oct-16 22:00N 26°45' W 079°21'714.4
2017-Oct-16 21:30N 26°52' W 079°21'65414.4
2017-Oct-15 00:05N 37°05' W 074°49'315.8
2017-Oct-14 23:52N 37°08' W 074°49'1215.9
2017-Oct-14 23:06N 37°20' W 074°47'616.0
2017-Oct-14 22:42N 37°26' W 074°46'315.8
2017-Oct-14 22:31N 37°29' W 074°46'815.7
2017-Oct-14 22:00N 37°37' W 074°44'1215.8
2017-Oct-14 21:14N 37°49' W 074°42'415.7
2017-Oct-14 21:00N 37°53' W 074°42'815.3
2017-Oct-14 20:30N 38°01' W 074°41'1015.1
2017-Oct-14 19:52N 38°10' W 074°40'615.0
2017-Oct-14 19:27N 38°16' W 074°40'814.5
2017-Oct-14 18:54N 38°24' W 074°41'2314.8
2017-Oct-14 17:20N 38°43' W 074°58'514.7
2017-Oct-14 17:01N 38°47' W 075°02'714.9
2017-Oct-14 16:30N 38°54' W 075°05'713.0
2017-Oct-14 16:00N 38°60' W 075°08'815.7
2017-Oct-14 15:30N 39°07' W 075°13'816.5
2017-Oct-14 15:00N 39°14' W 075°18'917.0
2017-Oct-14 14:30N 39°20' W 075°26'816.5
2017-Oct-14 14:00N 39°27' W 075°33'714.3
2017-Oct-14 13:30N 39°34' W 075°33'510.4
2017-Oct-14 13:01N 39°39' W 075°33'612.0
2017-Oct-14 12:30N 39°44' W 075°30'510.8
2017-Oct-14 12:00N 39°48' W 075°25'5 9.6
2017-Oct-14 11:30N 39°51' W 075°20'510.4
2017-Oct-14 11:00N 39°52' W 075°13'5 9.3
2017-Oct-14 10:30N 39°54' W 075°08'4 7.9
2017-Oct-14 10:01N 39°58' W 075°07'2 3.1
2017-Oct-14 09:30N 39°59' W 075°06'0 0.0
2017-Oct-14 09:00N 39°59' W 075°06'0 0.0
2017-Oct-14 08:28N 39°59' W 075°06'0 0.0
2017-Oct-14 07:58N 39°59' W 075°06'0 0.0
2017-Oct-14 07:28N 39°59' W 075°06'0 0.0
2017-Oct-14 07:01N 39°59' W 075°06'0 0.0
2017-Oct-14 06:31N 39°59' W 075°06'0 0.0
2017-Oct-14 05:58N 39°59' W 075°06'0 0.0
2017-Oct-14 05:28N 39°59' W 075°06'0 0.0
2017-Oct-14 04:58N 39°59' W 075°06'0 0.0
2017-Oct-14 04:28N 39°59' W 075°06'0 0.0
2017-Oct-14 04:00N 39°59' W 075°06'0 0.0
2017-Oct-14 03:30N 39°59' W 075°06'0 0.0
2017-Oct-14 02:31N 39°59' W 075°06'0 0.0
2017-Oct-14 02:00N 39°59' W 075°06'0 0.0
2017-Oct-14 01:25N 39°59' W 075°06'0 0.0
2017-Oct-14 00:58N 39°59' W 075°06'0 0.0
2017-Oct-14 00:27N 39°59' W 075°06'0 0.0
2017-Oct-14 00:01N 39°59' W 075°06'0 0.0
2017-Oct-13 23:28N 39°59' W 075°06'0 0.0
2017-Oct-13 22:58N 39°59' W 075°06'0 0.0
2017-Oct-13 22:28N 39°59' W 075°06'0 0.0
2017-Oct-13 21:58N 39°59' W 075°06'0 0.0
2017-Oct-13 21:27N 39°59' W 075°06'0 0.0
2017-Oct-13 21:00N 39°59' W 075°06'0 0.0
2017-Oct-13 20:31N 39°59' W 075°06'0 0.0
2017-Oct-13 20:01N 39°59' W 075°06'0 0.0
2017-Oct-13 19:28N 39°59' W 075°06'0 0.0
2017-Oct-13 19:01N 39°59' W 075°06'0 0.0
2017-Oct-13 18:31N 39°59' W 075°06'0 0.0
2017-Oct-13 18:00N 39°59' W 075°06'0 0.0
2017-Oct-13 17:31N 39°59' W 075°06'0 0.0
2017-Oct-13 17:01N 39°59' W 075°06'0 0.0
2017-Oct-13 16:28N 39°59' W 075°06'0 0.0
2017-Oct-13 16:01N 39°59' W 075°06'0 0.0
2017-Oct-13 15:30N 39°59' W 075°06'0 0.0
2017-Oct-13 15:01N 39°59' W 075°06'0 0.0
2017-Oct-13 14:28N 39°59' W 075°06'0 0.0
2017-Oct-13 14:00N 39°59' W 075°06'0 0.0
2017-Oct-13 13:30N 39°59' W 075°06'0 0.0
2017-Oct-13 13:00N 39°59' W 075°06'0 0.0
2017-Oct-13 12:30N 39°59' W 075°06'0 0.0
2017-Oct-13 12:00N 39°59' W 075°06'0 0.0
2017-Oct-13 11:31N 39°59' W 075°06'0 0.0
2017-Oct-13 11:01N 39°59' W 075°06'0 0.0
2017-Oct-13 10:30N 39°59' W 075°06'0 0.0
2017-Oct-13 10:00N 39°59' W 075°06'0 0.0
2017-Oct-13 09:30N 39°59' W 075°06'0 0.0
2017-Oct-13 09:00N 39°59' W 075°06'0 0.0
2017-Oct-13 08:31N 39°59' W 075°06'0 0.0
2017-Oct-13 08:01N 39°59' W 075°06'0 0.0
2017-Oct-13 07:30N 39°59' W 075°06'0 0.0
2017-Oct-13 07:00N 39°59' W 075°06'0 0.0
2017-Oct-13 06:31N 39°59' W 075°06'0 0.0
2017-Oct-13 06:01N 39°59' W 075°06'0 0.0
2017-Oct-13 05:30N 39°59' W 075°06'0 0.0
2017-Oct-13 05:01N 39°59' W 075°06'0 0.0
2017-Oct-13 04:30N 39°59' W 075°06'0 0.0
2017-Oct-13 04:00N 39°59' W 075°06'0 0.0
2017-Oct-13 03:30N 39°59' W 075°06'0 0.0
2017-Oct-13 03:00N 39°59' W 075°06'0 0.0
2017-Oct-13 02:30N 39°59' W 075°06'0 0.0
2017-Oct-13 02:00N 39°59' W 075°06'0 0.0
2017-Oct-13 01:30N 39°59' W 075°06'0 0.0
2017-Oct-13 01:00N 39°59' W 075°06'0 0.0
2017-Oct-13 00:30N 39°59' W 075°06'0 0.0
2017-Oct-13 00:00N 39°59' W 075°06'0 0.0
2017-Oct-12 23:30N 39°59' W 075°06'0 0.0
2017-Oct-12 23:00N 39°59' W 075°06'0 0.0
2017-Oct-12 22:30N 39°59' W 075°06'0 0.0
2017-Oct-12 22:00N 39°59' W 075°06'0 0.0
2017-Oct-12 21:30N 39°59' W 075°06'0 0.0
2017-Oct-12 21:00N 39°59' W 075°06'0 0.0
2017-Oct-12 20:30N 39°59' W 075°06'0 0.0
2017-Oct-12 20:00N 39°59' W 075°06'0 0.0
2017-Oct-12 19:30N 39°59' W 075°06'0 0.0
2017-Oct-12 19:00N 39°59' W 075°06'0 0.0
2017-Oct-12 18:30N 39°59' W 075°06'0 0.0
2017-Oct-12 18:00N 39°59' W 075°06'0 0.0
2017-Oct-12 17:30N 39°59' W 075°06'0 0.0
2017-Oct-12 17:00N 39°59' W 075°06'0 0.0
2017-Oct-12 16:30N 39°59' W 075°06'0 0.0
2017-Oct-12 16:00N 39°59' W 075°06'0 0.0
2017-Oct-12 15:30N 39°59' W 075°06'0 0.0
2017-Oct-12 15:00N 39°59' W 075°06'0 0.0
2017-Oct-12 14:30N 39°59' W 075°06'0 0.0
2017-Oct-12 14:00N 39°59' W 075°06'0 0.0
2017-Oct-12 13:30N 39°59' W 075°06'0 0.0
2017-Oct-12 13:00N 39°59' W 075°06'0 0.0
2017-Oct-12 12:30N 39°59' W 075°06'0 0.0
2017-Oct-12 11:54N 39°59' W 075°06'0 0.0
2017-Oct-12 11:30N 39°59' W 075°06'0 0.0
2017-Oct-12 11:00N 39°59' W 075°06'0 0.0
2017-Oct-12 10:30N 39°59' W 075°06'0 0.0
2017-Oct-12 10:00N 39°59' W 075°06'0 0.0
2017-Oct-12 09:30N 39°59' W 075°06'0 0.0
2017-Oct-12 09:00N 39°59' W 075°06'0 0.0
2017-Oct-12 08:30N 39°59' W 075°06'0 0.0
2017-Oct-12 08:00N 39°59' W 075°06'0 0.0
2017-Oct-12 07:27N 39°59' W 075°06'0 0.0
2017-Oct-12 07:00N 39°59' W 075°06'0 0.0
2017-Oct-12 06:30N 39°59' W 075°06'0 0.0
2017-Oct-12 06:00N 39°59' W 075°06'0 0.0
2017-Oct-12 05:30N 39°59' W 075°06'0 0.0
2017-Oct-12 05:00N 39°59' W 075°06'0 0.0
2017-Oct-12 04:30N 39°59' W 075°06'0 0.0
2017-Oct-12 04:00N 39°59' W 075°06'0 0.0
2017-Oct-12 03:30N 39°59' W 075°06'0 0.0
2017-Oct-12 03:00N 39°59' W 075°06'0 0.0
2017-Oct-12 02:30N 39°59' W 075°06'0 0.0
2017-Oct-12 02:00N 39°59' W 075°06'0 0.0
2017-Oct-12 01:30N 39°59' W 075°06'0 0.0
2017-Oct-12 01:00N 39°59' W 075°06'0 0.0
2017-Oct-12 00:30N 39°59' W 075°06'0 0.0
2017-Oct-12 00:00N 39°59' W 075°06'0 0.0
2017-Oct-11 23:30N 39°59' W 075°06'0 0.0
2017-Oct-11 23:00N 39°59' W 075°06'0 0.0
2017-Oct-11 22:30N 39°59' W 075°06'0 0.0
2017-Oct-11 22:00N 39°59' W 075°06'0 0.0
2017-Oct-11 21:30N 39°59' W 075°06'0 0.0
2017-Oct-11 21:00N 39°59' W 075°06'0 0.0
2017-Oct-11 20:30N 39°59' W 075°06'0 0.0
2017-Oct-11 20:00N 39°59' W 075°06'0 0.0
2017-Oct-11 19:30N 39°59' W 075°06'0 0.0
2017-Oct-11 19:00N 39°59' W 075°06'0 0.0
2017-Oct-11 18:30N 39°59' W 075°06'0 0.0
2017-Oct-11 18:00N 39°59' W 075°06'0 0.0
2017-Oct-11 17:30N 39°59' W 075°06'0 0.0
2017-Oct-11 17:00N 39°59' W 075°06'  
Track history (hours):
 
Tides and Currents Weather Stations Pressure Air Temp Water Temp Dewpoint Dewpoint Depression Visibility Wind Speed Wind Dir Waves Ship Positions

Seabulk Challenge

Owner: Seabulk Tankers, Inc., Fort Lauderdale, FL. More information available from US FCC via Universal Licensing System and Coast Guard Vessel Documentation Center.

Last reported at 2017-Oct-21 12:21 UTC. Time now 2017-Oct-22 14:03 UTC.
Position N 29°45' W 095°06'.

Length 192 m; draft 8.7 m.

Type: Tanker. MMSI: 303104000.

Date/timePositionNaut miles runAvg speedWind from/ knotsBaromVisibWave heightAir tempDewpointWater temp
2017-Oct-21 12:21N 29°45' W 095°06'0 0.7
2017-Oct-21 11:59N 29°45' W 095°06'2 4.1
2017-Oct-21 11:30N 29°45' W 095°04'4 7.9
2017-Oct-21 11:00N 29°42' W 095°01'510.9
2017-Oct-21 10:30N 29°37' W 094°58'612.7
2017-Oct-21 10:00N 29°32' W 094°54'613.0
2017-Oct-21 09:30N 29°26' W 094°50'29 0.7
2017-Oct-19 14:50N 29°10' W 094°23'1414.5
2017-Oct-19 13:53N 29°02' W 094°10'  
2017-Oct-17 05:18N 25°14' W 080°03'412.5
2017-Oct-17 04:59N 25°18' W 080°01'612.6
2017-Oct-17 04:31N 25°23' W 079°57'612.7
2017-Oct-17 04:01N 25°28' W 079°54'613.0
2017-Oct-17 03:31N 25°33' W 079°49'713.4
2017-Oct-17 03:01N 25°39' W 079°45'713.7
2017-Oct-17 02:30N 25°44' W 079°40'714.1
2017-Oct-17 02:00N 25°49' W 079°35'714.1
2017-Oct-17 01:30N 25°55' W 079°30'714.7
2017-Oct-17 01:00N 26°01' W 079°26'815.2
2017-Oct-17 00:30N 26°09' W 079°24'715.1
2017-Oct-17 00:00N 26°16' W 079°23'2814.6
2017-Oct-16 22:07N 26°44' W 079°21'214.3
2017-Oct-16 22:00N 26°45' W 079°21'714.4
2017-Oct-16 21:30N 26°52' W 079°21'65414.4
2017-Oct-15 00:05N 37°05' W 074°49'315.8
2017-Oct-14 23:52N 37°08' W 074°49'1215.9
2017-Oct-14 23:06N 37°20' W 074°47'616.0
2017-Oct-14 22:42N 37°26' W 074°46'315.8
2017-Oct-14 22:31N 37°29' W 074°46'815.7
2017-Oct-14 22:00N 37°37' W 074°44'1215.8
2017-Oct-14 21:14N 37°49' W 074°42'415.7
2017-Oct-14 21:00N 37°53' W 074°42'815.3
2017-Oct-14 20:30N 38°01' W 074°41'1015.1
2017-Oct-14 19:52N 38°10' W 074°40'615.0
2017-Oct-14 19:27N 38°16' W 074°40'814.5
2017-Oct-14 18:54N 38°24' W 074°41'2314.8
2017-Oct-14 17:20N 38°43' W 074°58'514.7
2017-Oct-14 17:01N 38°47' W 075°02'714.9
2017-Oct-14 16:30N 38°54' W 075°05'713.0
2017-Oct-14 16:00N 38°60' W 075°08'815.7
2017-Oct-14 15:30N 39°07' W 075°13'816.5
2017-Oct-14 15:00N 39°14' W 075°18'917.0
2017-Oct-14 14:30N 39°20' W 075°26'816.5
2017-Oct-14 14:00N 39°27' W 075°33'714.3
2017-Oct-14 13:30N 39°34' W 075°33'510.4
2017-Oct-14 13:01N 39°39' W 075°33'612.0
2017-Oct-14 12:30N 39°44' W 075°30'510.8
2017-Oct-14 12:00N 39°48' W 075°25'5 9.6
2017-Oct-14 11:30N 39°51' W 075°20'510.4
2017-Oct-14 11:00N 39°52' W 075°13'5 9.3
2017-Oct-14 10:30N 39°54' W 075°08'4 7.9
2017-Oct-14 10:01N 39°58' W 075°07'2 3.1
2017-Oct-14 09:30N 39°59' W 075°06'0 0.0
2017-Oct-14 09:00N 39°59' W 075°06'0 0.0
2017-Oct-14 08:28N 39°59' W 075°06'0 0.0
2017-Oct-14 07:58N 39°59' W 075°06'0 0.0
2017-Oct-14 07:28N 39°59' W 075°06'0 0.0
2017-Oct-14 07:01N 39°59' W 075°06'0 0.0
2017-Oct-14 06:31N 39°59' W 075°06'0 0.0
2017-Oct-14 05:58N 39°59' W 075°06'0 0.0
2017-Oct-14 05:28N 39°59' W 075°06'0 0.0
2017-Oct-14 04:58N 39°59' W 075°06'0 0.0
2017-Oct-14 04:28N 39°59' W 075°06'0 0.0
2017-Oct-14 04:00N 39°59' W 075°06'0 0.0
2017-Oct-14 03:30N 39°59' W 075°06'0 0.0
2017-Oct-14 02:31N 39°59' W 075°06'0 0.0
2017-Oct-14 02:00N 39°59' W 075°06'0 0.0
2017-Oct-14 01:25N 39°59' W 075°06'0 0.0
2017-Oct-14 00:58N 39°59' W 075°06'0 0.0
2017-Oct-14 00:27N 39°59' W 075°06'0 0.0
2017-Oct-14 00:01N 39°59' W 075°06'0 0.0
2017-Oct-13 23:28N 39°59' W 075°06'0 0.0
2017-Oct-13 22:58N 39°59' W 075°06'0 0.0
2017-Oct-13 22:28N 39°59' W 075°06'0 0.0
2017-Oct-13 21:58N 39°59' W 075°06'0 0.0
2017-Oct-13 21:27N 39°59' W 075°06'0 0.0
2017-Oct-13 21:00N 39°59' W 075°06'0 0.0
2017-Oct-13 20:31N 39°59' W 075°06'0 0.0
2017-Oct-13 20:01N 39°59' W 075°06'0 0.0
2017-Oct-13 19:28N 39°59' W 075°06'0 0.0
2017-Oct-13 19:01N 39°59' W 075°06'0 0.0
2017-Oct-13 18:31N 39°59' W 075°06'0 0.0
2017-Oct-13 18:00N 39°59' W 075°06'0 0.0
2017-Oct-13 17:31N 39°59' W 075°06'0 0.0
2017-Oct-13 17:01N 39°59' W 075°06'0 0.0
2017-Oct-13 16:28N 39°59' W 075°06'0 0.0
2017-Oct-13 16:01N 39°59' W 075°06'0 0.0
2017-Oct-13 15:30N 39°59' W 075°06'0 0.0
2017-Oct-13 15:01N 39°59' W 075°06'0 0.0
2017-Oct-13 14:28N 39°59' W 075°06'0 0.0
2017-Oct-13 14:00N 39°59' W 075°06'0 0.0
2017-Oct-13 13:30N 39°59' W 075°06'0 0.0
2017-Oct-13 13:00N 39°59' W 075°06'0 0.0
2017-Oct-13 12:30N 39°59' W 075°06'0 0.0
2017-Oct-13 12:00N 39°59' W 075°06'0 0.0
2017-Oct-13 11:31N 39°59' W 075°06'0 0.0
2017-Oct-13 11:01N 39°59' W 075°06'0 0.0
2017-Oct-13 10:30N 39°59' W 075°06'0 0.0
2017-Oct-13 10:00N 39°59' W 075°06'0 0.0
2017-Oct-13 09:30N 39°59' W 075°06'0 0.0
2017-Oct-13 09:00N 39°59' W 075°06'0 0.0
2017-Oct-13 08:31N 39°59' W 075°06'0 0.0
2017-Oct-13 08:01N 39°59' W 075°06'0 0.0
2017-Oct-13 07:30N 39°59' W 075°06'0 0.0
2017-Oct-13 07:00N 39°59' W 075°06'0 0.0
2017-Oct-13 06:31N 39°59' W 075°06'0 0.0
2017-Oct-13 06:01N 39°59' W 075°06'0 0.0
2017-Oct-13 05:30N 39°59' W 075°06'0 0.0
2017-Oct-13 05:01N 39°59' W 075°06'0 0.0
2017-Oct-13 04:30N 39°59' W 075°06'0 0.0
2017-Oct-13 04:00N 39°59' W 075°06'0 0.0
2017-Oct-13 03:30N 39°59' W 075°06'0 0.0
2017-Oct-13 03:00N 39°59' W 075°06'0 0.0
2017-Oct-13 02:30N 39°59' W 075°06'0 0.0
2017-Oct-13 02:00N 39°59' W 075°06'0 0.0
2017-Oct-13 01:30N 39°59' W 075°06'0 0.0
2017-Oct-13 01:00N 39°59' W 075°06'0 0.0
2017-Oct-13 00:30N 39°59' W 075°06'0 0.0
2017-Oct-13 00:00N 39°59' W 075°06'0 0.0
2017-Oct-12 23:30N 39°59' W 075°06'0 0.0
2017-Oct-12 23:00N 39°59' W 075°06'0 0.0
2017-Oct-12 22:30N 39°59' W 075°06'0 0.0
2017-Oct-12 22:00N 39°59' W 075°06'0 0.0
2017-Oct-12 21:30N 39°59' W 075°06'0 0.0
2017-Oct-12 21:00N 39°59' W 075°06'0 0.0
2017-Oct-12 20:30N 39°59' W 075°06'0 0.0
2017-Oct-12 20:00N 39°59' W 075°06'0 0.0
2017-Oct-12 19:30N 39°59' W 075°06'0 0.0
2017-Oct-12 19:00N 39°59' W 075°06'0 0.0
2017-Oct-12 18:30N 39°59' W 075°06'0 0.0
2017-Oct-12 18:00N 39°59' W 075°06'0 0.0
2017-Oct-12 17:30N 39°59' W 075°06'0 0.0
2017-Oct-12 17:00N 39°59' W 075°06'0 0.0
2017-Oct-12 16:30N 39°59' W 075°06'0 0.0
2017-Oct-12 16:00N 39°59' W 075°06'0 0.0
2017-Oct-12 15:30N 39°59' W 075°06'0 0.0
2017-Oct-12 15:00N 39°59' W 075°06'0 0.0
2017-Oct-12 14:30N 39°59' W 075°06'0 0.0
2017-Oct-12 14:00N 39°59' W 075°06'0 0.0
2017-Oct-12 13:30N 39°59' W 075°06'0 0.0
2017-Oct-12 13:00N 39°59' W 075°06'0 0.0
2017-Oct-12 12:30N 39°59' W 075°06'0 0.0
2017-Oct-12 11:54N 39°59' W 075°06'0 0.0
2017-Oct-12 11:30N 39°59' W 075°06'0 0.0
2017-Oct-12 11:00N 39°59' W 075°06'0 0.0
2017-Oct-12 10:30N 39°59' W 075°06'0 0.0
2017-Oct-12 10:00N 39°59' W 075°06'0 0.0
2017-Oct-12 09:30N 39°59' W 075°06'0 0.0
2017-Oct-12 09:00N 39°59' W 075°06'0 0.0
2017-Oct-12 08:30N 39°59' W 075°06'0 0.0
2017-Oct-12 08:00N 39°59' W 075°06'0 0.0
2017-Oct-12 07:27N 39°59' W 075°06'0 0.0
2017-Oct-12 07:00N 39°59' W 075°06'0 0.0
2017-Oct-12 06:30N 39°59' W 075°06'0 0.0
2017-Oct-12 06:00N 39°59' W 075°06'0 0.0
2017-Oct-12 05:30N 39°59' W 075°06'0 0.0
2017-Oct-12 05:00N 39°59' W 075°06'0 0.0
2017-Oct-12 04:30N 39°59' W 075°06'0 0.0
2017-Oct-12 04:00N 39°59' W 075°06'0 0.0
2017-Oct-12 03:30N 39°59' W 075°06'0 0.0
2017-Oct-12 03:00N 39°59' W 075°06'0 0.0
2017-Oct-12 02:30N 39°59' W 075°06'0 0.0
2017-Oct-12 02:00N 39°59' W 075°06'0 0.0
2017-Oct-12 01:30N 39°59' W 075°06'0 0.0
2017-Oct-12 01:00N 39°59' W 075°06'0 0.0
2017-Oct-12 00:30N 39°59' W 075°06'0 0.0
2017-Oct-12 00:00N 39°59' W 075°06'0 0.0
2017-Oct-11 23:30N 39°59' W 075°06'0 0.0
2017-Oct-11 23:00N 39°59' W 075°06'0 0.0
2017-Oct-11 22:30N 39°59' W 075°06'0 0.0
2017-Oct-11 22:00N 39°59' W 075°06'0 0.0
2017-Oct-11 21:30N 39°59' W 075°06'0 0.0
2017-Oct-11 21:00N 39°59' W 075°06'0 0.0
2017-Oct-11 20:30N 39°59' W 075°06'0 0.0
2017-Oct-11 20:00N 39°59' W 075°06'0 0.0
2017-Oct-11 19:30N 39°59' W 075°06'0 0.0
2017-Oct-11 19:00N 39°59' W 075°06'0 0.0
2017-Oct-11 18:30N 39°59' W 075°06'0 0.0
2017-Oct-11 18:00N 39°59' W 075°06'0 0.0
2017-Oct-11 17:30N 39°59' W 075°06'0 0.0
2017-Oct-11 17:00N 39°59' W 075°06'  

Dump ship's entire track history